Time;durP1;ratioP1;P1;durP2;ratioP2;P2;SDS_P1;SDS_P2;PMS_P1;PMS_P2;Temp;Humidity;BMP_temperature;BMP_pressure;BME280_temperature;BME280_humidity;BME280_pressure;Samples;Min_cycle;Max_cycle;Signal;HPM_P1;HPM_P2
2021/10/01 00:00:09;;;;;;;2.93;0.67;;;13.80;99.90;;;;;;4979186;28;20250;-84
2021/10/01 00:02:35;;;;;;;1.23;0.60;;;13.80;99.90;;;;;;4963642;28;20223;-84
2021/10/01 00:05:01;;;;;;;5.77;1.10;;;13.80;99.90;;;;;;4948972;28;20249;-85
2021/10/01 00:07:28;;;;;;;1.07;0.70;;;13.80;99.90;;;;;;4964030;28;20516;-83
2021/10/01 00:09:54;;;;;;;3.57;1.57;;;13.80;99.90;;;;;;4998680;28;20192;-85
2021/10/01 00:12:20;;;;;;;0.90;0.90;;;13.80;99.90;;;;;;4963344;28;20696;-85
2021/10/01 00:14:48;;;;;;;3.03;1.03;;;13.80;99.90;;;;;;4963524;28;20684;-84
2021/10/01 00:17:15;;;;;;;1.80;0.63;;;13.70;99.90;;;;;;4963364;28;20220;-83
2021/10/01 00:19:41;;;;;;;1.00;0.53;;;13.70;99.90;;;;;;4963388;28;20230;-83
2021/10/01 00:22:06;;;;;;;0.77;0.63;;;13.70;99.90;;;;;;4982044;28;20538;-84
2021/10/01 00:24:34;;;;;;;1.63;0.77;;;13.70;99.90;;;;;;4997526;28;20223;-82
2021/10/01 00:27:01;;;;;;;0.60;0.40;;;13.70;99.90;;;;;;4979690;28;20810;-84
2021/10/01 00:29:27;;;;;;;0.87;0.43;;;13.70;99.90;;;;;;4963803;28;20238;-82
2021/10/01 00:31:53;;;;;;;1.53;0.83;;;13.80;99.90;;;;;;4997407;28;20239;-83
2021/10/01 00:34:19;;;;;;;0.80;0.80;;;13.80;99.90;;;;;;4987748;28;20725;-84
2021/10/01 00:36:45;;;;;;;3.97;1.00;;;13.80;99.90;;;;;;4980901;28;20290;-84
2021/10/01 00:39:11;;;;;;;8.50;1.13;;;13.80;99.90;;;;;;4976358;28;20567;-84
2021/10/01 00:41:37;;;;;;;1.13;0.70;;;13.80;99.90;;;;;;4962589;28;20756;-82
2021/10/01 00:44:04;;;;;;;2.60;1.00;;;13.70;99.90;;;;;;4978825;28;20231;-85
2021/10/01 00:46:30;;;;;;;2.00;1.00;;;13.80;99.90;;;;;;4962827;28;20220;-85
2021/10/01 00:48:56;;;;;;;2.23;0.60;;;13.80;99.90;;;;;;4963426;28;20200;-85
2021/10/01 00:51:25;;;;;;;1.93;0.80;;;13.80;99.90;;;;;;4963202;28;20234;-84
2021/10/01 00:53:52;;;;;;;2.70;0.93;;;13.80;99.90;;;;;;4979167;28;20226;-85
2021/10/01 00:56:19;;;;;;;0.97;0.57;;;13.80;99.90;;;;;;4962509;28;20294;-83
2021/10/01 00:58:45;;;;;;;2.63;0.50;;;13.80;99.90;;;;;;4965192;28;20603;-83
2021/10/01 01:01:11;;;;;;;0.73;0.47;;;13.80;99.90;;;;;;4947371;28;20199;-84
2021/10/01 01:03:50;;;;;;;2.80;0.63;;;13.80;99.90;;;;;;4993963;28;20202;-84
2021/10/01 01:06:40;;;;;;;0.83;0.37;;;13.80;99.90;;;;;;4979299;28;20277;-84
2021/10/01 01:09:29;;;;;;;1.67;0.60;;;13.80;99.90;;;;;;4995292;28;20223;-84
2021/10/01 01:12:09;;;;;;;1.07;0.90;;;13.80;99.90;;;;;;4997202;28;20227;-84
2021/10/01 01:14:43;;;;;;;4.97;0.67;;;13.80;99.90;;;;;;4996010;28;20230;-83
2021/10/01 01:17:16;;;;;;;4.73;0.73;;;13.80;99.90;;;;;;4994330;28;20261;-84
2021/10/01 01:20:04;;;;;;;2.87;0.80;;;13.80;99.90;;;;;;4979705;28;20255;-84
2021/10/01 01:22:41;;;;;;;0.87;0.70;;;13.90;99.90;;;;;;4976906;28;20223;-85
2021/10/01 01:25:36;;;;;;;3.73;0.70;;;13.80;99.90;;;;;;4978753;28;20187;-84
2021/10/01 01:28:32;;;;;;;0.97;0.70;;;13.90;99.90;;;;;;4987109;28;20207;-84
2021/10/01 01:31:15;;;;;;;5.80;1.37;;;13.90;99.90;;;;;;4978985;28;20630;-85
2021/10/01 01:33:43;;;;;;;1.67;0.70;;;13.80;99.90;;;;;;4994712;28;20576;-84
2021/10/01 01:36:10;;;;;;;0.53;0.50;;;13.80;99.90;;;;;;4987472;28;20587;-84
2021/10/01 01:38:44;;;;;;;0.40;0.40;;;13.80;99.90;;;;;;4976635;28;20215;-84
2021/10/01 01:41:11;;;;;;;1.83;0.77;;;13.80;99.90;;;;;;4979407;28;20223;-84
2021/10/01 01:43:39;;;;;;;7.63;1.33;;;13.90;99.90;;;;;;4961850;28;20219;-83
2021/10/01 01:46:06;;;;;;;0.50;0.40;;;13.90;99.90;;;;;;4959906;28;20211;-84
2021/10/01 01:48:33;;;;;;;1.00;0.80;;;14.00;99.90;;;;;;4995185;28;20222;-85
2021/10/01 01:51:00;;;;;;;1.23;0.53;;;14.00;99.90;;;;;;4977383;28;20304;-84
2021/10/01 01:53:28;;;;;;;1.53;0.80;;;13.90;99.90;;;;;;4976926;28;20666;-83
2021/10/01 01:55:55;;;;;;;1.00;0.50;;;13.90;99.90;;;;;;4977559;28;20243;-83
2021/10/01 01:58:22;;;;;;;1.03;0.70;;;13.90;99.90;;;;;;4979486;28;20588;-84
2021/10/01 02:00:48;;;;;;;2.67;0.63;;;13.90;99.90;;;;;;4978883;28;20200;-85
2021/10/01 02:03:16;;;;;;;1.27;1.17;;;14.00;99.90;;;;;;4963282;28;20579;-85
2021/10/01 02:05:45;;;;;;;0.90;0.90;;;14.00;99.90;;;;;;4986626;28;20234;-84
2021/10/01 02:08:12;;;;;;;0.50;0.47;;;13.90;99.90;;;;;;4978265;28;20259;-84
2021/10/01 02:10:38;;;;;;;0.77;0.63;;;14.00;99.90;;;;;;4974338;28;20606;-84
2021/10/01 02:13:08;;;;;;;3.63;1.13;;;13.90;99.90;;;;;;4959722;28;20192;-83
2021/10/01 02:15:35;;;;;;;0.60;0.60;;;14.00;99.90;;;;;;4993035;28;20278;-83
2021/10/01 02:18:03;;;;;;;1.53;1.23;;;13.90;99.90;;;;;;4963010;28;20247;-84
2021/10/01 02:20:31;;;;;;;3.17;0.90;;;14.00;99.90;;;;;;4993636;28;20282;-83
2021/10/01 02:22:57;;;;;;;0.70;0.67;;;14.00;99.90;;;;;;4976478;28;20212;-85
2021/10/01 02:28:14;;;;;;;6.63;1.43;;;13.90;99.90;;;;;;4982010;28;20199;-85
2021/10/01 02:30:42;;;;;;;1.50;0.97;;;13.90;99.90;;;;;;4986091;28;20327;-83
2021/10/01 02:33:19;;;;;;;0.57;0.57;;;13.90;99.90;;;;;;4960638;28;20235;-83
2021/10/01 02:35:45;;;;;;;1.33;1.23;;;13.80;99.90;;;;;;4994986;28;20261;-84
2021/10/01 02:38:11;;;;;;;1.60;1.30;;;13.80;99.90;;;;;;4954059;28;20648;-85
2021/10/01 02:40:37;;;;;;;5.07;0.90;;;13.80;99.90;;;;;;4991561;28;20362;-85
2021/10/01 02:43:02;;;;;;;1.93;0.63;;;13.80;99.90;;;;;;4992871;28;20195;-85
2021/10/01 02:45:28;;;;;;;0.97;0.93;;;13.90;99.90;;;;;;4960388;28;20227;-85
2021/10/01 02:47:54;;;;;;;2.70;0.87;;;13.80;99.90;;;;;;4973967;28;20222;-84
2021/10/01 02:50:22;;;;;;;1.37;1.20;;;13.80;99.90;;;;;;4944884;28;20257;-85
2021/10/01 02:53:03;;;;;;;0.47;0.47;;;13.80;99.90;;;;;;4983152;28;20716;-86
2021/10/01 02:56:01;;;;;;;0.70;0.70;;;13.80;99.90;;;;;;4977935;28;20219;-84
2021/10/01 02:58:38;;;;;;;1.43;1.00;;;13.80;99.90;;;;;;4976108;28;20192;-83
2021/10/01 03:01:07;;;;;;;2.60;1.13;;;13.80;99.90;;;;;;4995772;28;20191;-83
2021/10/01 03:03:40;;;;;;;2.20;0.80;;;13.90;99.90;;;;;;4962080;28;20217;-83
2021/10/01 03:06:06;;;;;;;0.43;0.43;;;13.90;99.90;;;;;;4978113;28;20776;-83
2021/10/01 03:08:34;;;;;;;3.83;1.23;;;13.90;99.90;;;;;;4961348;28;20235;-84
2021/10/01 03:11:01;;;;;;;0.80;0.70;;;13.90;99.90;;;;;;4959739;28;20247;-83
2021/10/01 03:13:27;;;;;;;2.23;0.83;;;13.90;99.90;;;;;;4977761;28;20486;-82
2021/10/01 03:15:57;;;;;;;2.20;0.80;;;13.90;99.90;;;;;;4975793;28;20254;-83
2021/10/01 03:18:23;;;;;;;1.37;1.17;;;13.90;99.90;;;;;;4983466;28;20219;-84
2021/10/01 03:20:50;;;;;;;4.73;0.60;;;13.90;99.90;;;;;;4945795;28;20235;-83
2021/10/01 03:23:19;;;;;;;3.23;1.27;;;13.90;99.90;;;;;;4942447;28;20215;-83
2021/10/01 03:25:45;;;;;;;3.03;1.33;;;13.90;99.90;;;;;;4976931;28;20557;-84
2021/10/01 03:28:14;;;;;;;1.37;1.10;;;13.90;99.90;;;;;;4978051;28;20191;-83
2021/10/01 03:30:41;;;;;;;6.27;0.97;;;13.90;99.90;;;;;;4995209;28;20246;-83
2021/10/01 03:33:07;;;;;;;11.50;0.90;;;13.80;99.90;;;;;;4960798;28;20231;-81
2021/10/01 03:35:33;;;;;;;1.80;0.87;;;13.80;99.90;;;;;;4976213;28;20262;-82
2021/10/01 03:37:59;;;;;;;1.97;0.87;;;13.80;99.90;;;;;;4961966;28;20696;-82
2021/10/01 03:40:31;;;;;;;1.73;0.50;;;13.80;99.90;;;;;;4960707;28;20343;-83
2021/10/01 03:42:57;;;;;;;1.47;0.87;;;13.80;99.90;;;;;;4994313;28;20226;-83
2021/10/01 03:45:23;;;;;;;2.00;1.50;;;13.70;99.90;;;;;;4961937;28;20224;-83
2021/10/01 03:47:48;;;;;;;2.67;1.00;;;13.70;99.90;;;;;;4959019;28;20219;-83
2021/10/01 03:50:14;;;;;;;1.10;0.80;;;13.70;99.90;;;;;;4977288;28;21050;-83
2021/10/01 03:52:40;;;;;;;4.23;0.80;;;13.70;99.90;;;;;;4976059;28;20770;-83
2021/10/01 03:55:07;;;;;;;0.70;0.70;;;13.70;99.90;;;;;;4961652;28;21058;-83
2021/10/01 03:57:33;;;;;;;1.00;0.90;;;13.60;99.90;;;;;;4959320;28;20216;-83
2021/10/01 03:59:59;;;;;;;2.30;0.60;;;13.70;99.90;;;;;;4975184;28;20251;-83
2021/10/01 04:02:25;;;;;;;1.73;1.07;;;13.70;99.90;;;;;;4961157;28;20846;-83
2021/10/01 04:04:50;;;;;;;3.80;1.27;;;13.70;99.90;;;;;;4962513;28;20314;-83
2021/10/01 04:07:16;;;;;;;2.03;1.10;;;13.70;99.90;;;;;;4975458;28;20203;-83
2021/10/01 04:09:42;;;;;;;3.40;1.03;;;13.60;99.90;;;;;;4964839;28;20214;-84
2021/10/01 04:12:08;;;;;;;4.67;1.10;;;13.60;99.90;;;;;;4978372;28;20251;-83
2021/10/01 04:14:35;;;;;;;1.43;1.17;;;13.60;99.90;;;;;;4964388;28;20655;-83
2021/10/01 04:17:01;;;;;;;3.80;0.87;;;13.60;99.90;;;;;;4965805;28;20306;-84
2021/10/01 04:19:27;;;;;;;1.63;0.77;;;13.60;99.90;;;;;;4979195;28;20220;-83
2021/10/01 04:21:52;;;;;;;0.83;0.47;;;13.60;99.90;;;;;;4946333;28;20242;-83
2021/10/01 04:24:18;;;;;;;3.83;1.00;;;13.50;99.90;;;;;;4962723;28;20728;-84
2021/10/01 04:26:44;;;;;;;1.60;0.87;;;13.50;99.90;;;;;;4994654;28;20258;-83
2021/10/01 04:29:11;;;;;;;1.60;0.47;;;13.50;99.90;;;;;;4979477;28;20234;-84
2021/10/01 04:31:37;;;;;;;2.80;1.07;;;13.50;99.90;;;;;;4977597;28;20238;-83
2021/10/01 04:34:04;;;;;;;0.53;0.53;;;13.50;99.90;;;;;;4948243;28;20196;-85
2021/10/01 04:36:32;;;;;;;3.97;0.90;;;13.50;99.90;;;;;;4946117;28;20275;-83
2021/10/01 04:38:58;;;;;;;1.33;0.77;;;13.40;99.90;;;;;;4962146;28;20236;-83
2021/10/01 04:41:23;;;;;;;2.93;1.03;;;13.50;99.90;;;;;;4962228;28;20228;-82
2021/10/01 04:43:49;;;;;;;1.60;1.00;;;13.40;99.90;;;;;;4995722;28;20234;-84
2021/10/01 04:46:15;;;;;;;1.90;1.13;;;13.40;99.90;;;;;;4963262;28;20650;-84
2021/10/01 04:48:41;;;;;;;1.83;1.03;;;13.40;99.90;;;;;;4978297;28;20410;-83
2021/10/01 04:51:07;;;;;;;3.07;0.80;;;13.40;99.90;;;;;;4994248;28;20226;-83
2021/10/01 04:53:32;;;;;;;2.53;1.07;;;13.40;99.90;;;;;;4975210;28;20225;-83
2021/10/01 04:55:58;;;;;;;2.93;0.77;;;13.40;99.90;;;;;;4992609;28;20219;-84
2021/10/01 04:58:24;;;;;;;1.20;0.90;;;13.30;99.90;;;;;;4959531;28;20196;-83
2021/10/01 05:00:50;;;;;;;1.43;1.17;;;13.30;99.90;;;;;;4962844;28;20286;-82
2021/10/01 05:03:15;;;;;;;0.93;0.80;;;13.30;99.90;;;;;;4942829;28;20263;-84
2021/10/01 05:05:41;;;;;;;2.33;0.80;;;13.20;99.90;;;;;;4971230;28;20732;-82
2021/10/01 05:08:07;;;;;;;3.70;1.50;;;13.20;99.90;;;;;;4946454;28;20999;-83
2021/10/01 05:10:33;;;;;;;1.33;1.00;;;13.20;99.90;;;;;;4948245;28;21424;-85
2021/10/01 05:12:58;;;;;;;0.93;0.77;;;13.10;99.90;;;;;;4963473;28;20992;-85
2021/10/01 05:15:24;;;;;;;1.40;1.30;;;13.10;99.90;;;;;;4956921;28;20215;-85
2021/10/01 05:17:52;;;;;;;1.30;1.17;;;13.10;99.90;;;;;;4976636;28;20702;-85
2021/10/01 05:20:18;;;;;;;1.60;1.13;;;13.00;99.90;;;;;;4963604;28;20227;-85
2021/10/01 05:22:44;;;;;;;1.33;0.80;;;13.00;99.90;;;;;;4978753;28;20231;-84
2021/10/01 05:25:10;;;;;;;1.00;0.70;;;13.00;99.90;;;;;;4972189;28;20215;-84
2021/10/01 05:27:36;;;;;;;0.70;0.70;;;13.00;99.90;;;;;;4963970;28;20218;-82
2021/10/01 05:30:04;;;;;;;2.00;1.00;;;13.00;99.90;;;;;;4976515;28;20224;-84
2021/10/01 05:32:30;;;;;;;4.27;0.83;;;13.00;99.90;;;;;;4959469;28;20638;-84
2021/10/01 05:34:56;;;;;;;1.30;0.73;;;12.90;99.90;;;;;;4957856;28;20232;-86
2021/10/01 05:37:21;;;;;;;0.80;0.80;;;12.90;99.90;;;;;;4933903;28;20567;-85
2021/10/01 05:39:47;;;;;;;4.07;1.00;;;12.90;99.90;;;;;;4955840;28;21118;-84
2021/10/01 05:42:13;;;;;;;2.20;0.60;;;12.90;99.90;;;;;;4975595;28;20216;-86
2021/10/01 05:44:39;;;;;;;1.10;0.70;;;12.90;99.90;;;;;;4976766;28;20216;-86
2021/10/01 05:47:06;;;;;;;0.67;0.67;;;12.90;99.90;;;;;;4959577;28;20254;-83
2021/10/01 05:49:42;;;;;;;2.50;0.60;;;13.00;99.90;;;;;;4941446;28;20224;-83
2021/10/01 05:54:40;;;;;;;3.43;0.80;;;13.00;99.90;;;;;;4976234;28;20203;-86
2021/10/01 05:57:08;;;;;;;1.60;0.80;;;13.00;99.90;;;;;;4974557;28;20225;-86
2021/10/01 05:59:36;;;;;;;0.70;0.70;;;13.10;99.90;;;;;;4976694;28;20285;-83
2021/10/01 06:02:02;;;;;;;4.53;1.43;;;13.10;99.90;;;;;;4971020;28;20239;-85
2021/10/01 06:04:28;;;;;;;4.20;0.87;;;13.10;99.90;;;;;;4971715;28;20315;-84
2021/10/01 06:06:54;;;;;;;0.70;0.70;;;13.20;99.90;;;;;;4956312;28;21051;-83
2021/10/01 06:09:20;;;;;;;2.00;0.50;;;13.10;99.90;;;;;;4956444;28;20216;-82
2021/10/01 06:11:46;;;;;;;1.27;0.60;;;13.20;99.90;;;;;;4977130;28;20217;-85
2021/10/01 06:14:12;;;;;;;0.57;0.50;;;13.10;99.90;;;;;;4955844;28;20279;-85
2021/10/01 06:16:38;;;;;;;1.73;0.73;;;13.10;99.90;;;;;;4940696;28;20262;-82
2021/10/01 06:19:04;;;;;;;2.00;0.93;;;13.20;99.90;;;;;;4972550;28;20216;-82
2021/10/01 06:21:30;;;;;;;2.10;0.70;;;13.20;99.90;;;;;;4976103;28;20220;-85
2021/10/01 06:23:56;;;;;;;1.57;0.53;;;13.20;99.90;;;;;;4973389;28;20282;-85
2021/10/01 06:26:22;;;;;;;2.07;0.67;;;13.10;99.90;;;;;;4952035;28;20224;-84
2021/10/01 06:28:48;;;;;;;0.70;0.70;;;13.10;99.90;;;;;;4974947;28;20673;-87
2021/10/01 06:31:14;;;;;;;0.70;0.70;;;13.10;99.90;;;;;;4959670;28;20191;-85
2021/10/01 06:33:40;;;;;;;0.73;0.67;;;13.10;99.90;;;;;;4974259;28;20331;-86
2021/10/01 06:36:06;;;;;;;3.40;1.30;;;13.10;99.90;;;;;;4952149;28;20228;-87
2021/10/01 06:38:32;;;;;;;0.50;0.50;;;13.10;99.90;;;;;;4942405;28;20386;-84
2021/10/01 06:40:59;;;;;;;0.63;0.63;;;13.10;99.90;;;;;;4972028;28;20216;-84
2021/10/01 06:43:29;;;;;;;0.60;0.40;;;13.10;99.90;;;;;;4971283;28;20316;-83
2021/10/01 06:45:57;;;;;;;0.63;0.63;;;13.10;99.90;;;;;;4957589;28;20204;-85
2021/10/01 06:48:46;;;;;;;0.80;0.70;;;13.10;99.90;;;;;;4965610;28;20689;-83
2021/10/01 08:21:15;;;;;;;2.90;0.90;;;15.20;99.90;;;;;;4974045;28;20242;-88
2021/10/01 08:23:42;;;;;;;1.63;1.53;;;15.50;99.90;;;;;;4945337;28;20641;-90
2021/10/01 08:26:08;;;;;;;0.70;0.70;;;15.60;99.90;;;;;;4961160;28;20283;-93
2021/10/01 08:28:37;;;;;;;0.70;0.60;;;15.80;99.90;;;;;;4962072;28;20307;-94
2021/10/01 08:31:03;;;;;;;2.83;0.60;;;15.80;99.90;;;;;;4978713;28;20200;-95
2021/10/01 08:33:29;;;;;;;0.67;0.60;;;16.00;99.90;;;;;;4962846;28;20328;-92
2021/10/01 08:35:55;;;;;;;5.60;1.43;;;16.40;99.90;;;;;;4968871;28;20782;-88
2021/10/01 08:38:20;;;;;;;0.60;0.60;;;16.50;99.90;;;;;;4960400;28;20232;-88
2021/10/01 08:40:46;;;;;;;1.63;1.00;;;16.20;99.90;;;;;;4959961;28;20266;-91
2021/10/01 08:43:13;;;;;;;1.57;0.80;;;15.80;99.90;;;;;;4960909;28;20215;-87
2021/10/01 08:45:39;;;;;;;2.73;1.00;;;15.50;99.90;;;;;;4961498;28;20208;-91
2021/10/01 08:48:05;;;;;;;1.77;1.00;;;15.20;99.90;;;;;;4992696;28;20224;-93
2021/10/01 08:50:31;;;;;;;0.63;0.63;;;15.00;99.90;;;;;;4975833;28;20228;-89
2021/10/01 08:52:59;;;;;;;6.80;0.90;;;15.00;99.90;;;;;;4944946;28;20236;-90
2021/10/01 08:55:27;;;;;;;6.13;1.03;;;14.90;99.90;;;;;;4978319;28;20201;-91
2021/10/01 08:57:53;;;;;;;1.30;1.27;;;15.00;99.90;;;;;;4978476;28;20730;-91
2021/10/01 09:00:21;;;;;;;1.80;1.07;;;15.00;99.90;;;;;;4976474;28;20335;-88
2021/10/01 09:02:47;;;;;;;2.63;1.37;;;15.00;99.90;;;;;;4977625;28;20220;-87
2021/10/01 09:05:13;;;;;;;2.63;0.80;;;15.10;99.90;;;;;;4976125;28;20540;-92
2021/10/01 09:07:39;;;;;;;1.97;1.43;;;15.10;99.90;;;;;;4978489;28;20266;-90
2021/10/01 09:10:10;;;;;;;2.57;0.90;;;15.20;99.90;;;;;;4977327;28;20187;-90
2021/10/01 09:12:36;;;;;;;1.73;0.87;;;15.30;99.90;;;;;;4960753;28;20248;-90
2021/10/01 09:15:03;;;;;;;2.53;1.00;;;15.30;99.90;;;;;;4976007;28;20250;-89
2021/10/01 09:17:31;;;;;;;1.10;1.00;;;15.20;99.90;;;;;;4985640;28;20228;-88
2021/10/01 09:19:59;;;;;;;0.70;0.70;;;15.30;99.90;;;;;;4975341;28;20676;-89
2021/10/01 09:22:33;;;;;;;0.83;0.83;;;15.30;99.90;;;;;;4952473;28;20197;-88
2021/10/01 09:25:18;;;;;;;0.50;0.50;;;15.40;99.90;;;;;;4978498;28;20200;-89
2021/10/01 09:27:45;;;;;;;6.43;1.10;;;15.40;99.90;;;;;;4955833;28;20224;-89
2021/10/01 09:30:13;;;;;;;2.90;0.83;;;15.50;99.90;;;;;;4972712;28;20223;-91
2021/10/01 09:32:41;;;;;;;3.40;1.07;;;15.70;99.90;;;;;;4974296;28;20252;-90
2021/10/01 09:35:16;;;;;;;3.30;0.67;;;15.90;99.90;;;;;;4976641;28;20236;-89
2021/10/01 09:37:43;;;;;;;1.60;1.30;;;15.90;99.90;;;;;;4976651;28;20223;-90
2021/10/01 09:40:10;;;;;;;1.23;1.00;;;15.90;99.90;;;;;;4975896;28;20324;-89
2021/10/01 09:42:44;;;;;;;2.60;1.03;;;15.80;99.90;;;;;;4977277;28;20191;-90
2021/10/01 09:45:12;;;;;;;0.77;0.77;;;15.80;99.90;;;;;;4974283;28;20208;-88
2021/10/01 09:47:50;;;;;;;2.67;1.10;;;15.80;99.90;;;;;;4974879;28;20290;-89
2021/10/01 09:50:30;;;;;;;1.10;0.80;;;15.70;99.90;;;;;;4976072;28;20230;-93
2021/10/01 09:53:02;;;;;;;2.67;1.00;;;15.70;99.90;;;;;;4986277;28;20223;-91
2021/10/01 09:55:31;;;;;;;1.90;1.13;;;15.50;99.90;;;;;;4972924;28;20386;-88
2021/10/01 09:58:00;;;;;;;0.73;0.73;;;15.40;99.90;;;;;;4969879;28;20662;-90
2021/10/01 10:00:40;;;;;;;1.37;0.97;;;15.40;99.90;;;;;;4975220;28;20239;-89
2021/10/01 10:03:12;;;;;;;3.97;1.37;;;15.30;99.90;;;;;;4973099;28;20768;-88
2021/10/01 10:05:57;;;;;;;1.80;1.50;;;15.40;99.90;;;;;;4975202;28;20653;-93
2021/10/01 10:08:37;;;;;;;1.00;1.00;;;15.20;99.90;;;;;;4990916;28;20563;-90
2021/10/01 10:11:18;;;;;;;1.53;1.20;;;15.10;99.90;;;;;;4982262;28;20292;-93
2021/10/01 10:26:40;;;;;;;4.17;1.20;;;14.40;99.90;;;;;;4961561;28;20236;-89
2021/10/01 10:29:09;;;;;;;1.80;0.77;;;14.30;99.90;;;;;;4968858;28;20231;-89
2021/10/01 10:31:43;;;;;;;4.97;1.27;;;14.30;99.90;;;;;;4985233;28;20291;-89
2021/10/01 10:34:23;;;;;;;1.17;1.03;;;14.20;99.90;;;;;;4970510;28;20218;-88
2021/10/01 10:36:59;;;;;;;2.23;1.10;;;14.30;99.90;;;;;;5001864;28;20357;-89
2021/10/01 10:39:33;;;;;;;1.90;1.40;;;14.30;99.90;;;;;;4968726;28;20306;-89
2021/10/01 10:42:02;;;;;;;5.37;1.63;;;14.30;99.90;;;;;;5001274;28;20239;-89
2021/10/01 10:44:43;;;;;;;5.57;1.00;;;14.30;99.90;;;;;;4984838;28;20267;-89
2021/10/01 10:47:09;;;;;;;2.03;1.20;;;14.50;99.90;;;;;;5001365;28;20957;-88
2021/10/01 10:49:35;;;;;;;4.70;1.77;;;14.80;99.90;;;;;;4966930;28;20216;-88
2021/10/01 10:52:11;;;;;;;1.43;0.83;;;15.30;99.90;;;;;;4969028;28;20189;-88
2021/10/01 10:54:41;;;;;;;1.93;1.20;;;15.70;99.90;;;;;;4994641;28;20739;-87
2021/10/01 10:57:21;;;;;;;4.40;1.00;;;15.80;99.90;;;;;;4966850;28;20212;-89
2021/10/01 10:59:59;;;;;;;0.97;0.87;;;15.80;99.90;;;;;;4999642;28;20271;-88
2021/10/01 11:02:44;;;;;;;3.50;1.00;;;15.70;99.90;;;;;;4982091;28;20240;-89
2021/10/01 11:05:28;;;;;;;4.27;1.40;;;15.90;99.90;;;;;;4982826;28;20239;-89
2021/10/01 11:08:01;;;;;;;2.83;1.00;;;15.90;99.90;;;;;;4986176;28;20216;-89
2021/10/01 11:10:38;;;;;;;2.60;1.17;;;16.00;99.90;;;;;;4974475;28;20193;-89
2021/10/01 11:13:22;;;;;;;3.23;1.03;;;15.90;99.90;;;;;;4957168;28;20185;-88
2021/10/01 11:16:11;;;;;;;1.67;1.13;;;15.80;99.90;;;;;;4983015;28;20229;-89
2021/10/01 11:18:46;;;;;;;1.83;1.17;;;15.70;99.90;;;;;;4971657;28;20228;-88
2021/10/01 11:21:27;;;;;;;0.83;0.80;;;15.50;99.90;;;;;;4994485;28;20258;-90
2021/10/01 11:23:59;;;;;;;1.40;1.03;;;15.50;99.90;;;;;;4979138;28;20328;-88
2021/10/01 11:26:29;;;;;;;1.13;0.97;;;15.30;99.90;;;;;;4986853;28;20255;-89
2021/10/01 11:28:59;;;;;;;2.03;0.90;;;15.50;99.90;;;;;;4973497;28;20270;-88
2021/10/01 11:31:41;;;;;;;1.67;0.97;;;15.50;99.90;;;;;;4998336;28;20295;-89
2021/10/01 11:34:07;;;;;;;3.37;1.17;;;15.60;99.90;;;;;;4979885;28;20181;-89
2021/10/01 11:36:39;;;;;;;2.47;1.40;;;15.60;99.90;;;;;;4970717;28;20212;-89
2021/10/01 11:39:14;;;;;;;1.17;1.00;;;15.60;99.90;;;;;;4969628;28;20232;-89
2021/10/01 11:41:46;;;;;;;0.37;0.37;;;15.50;99.90;;;;;;4976121;28;20218;-90
2021/10/01 11:44:15;;;;;;;2.20;1.43;;;15.50;99.90;;;;;;4978370;28;20239;-90
2021/10/01 11:46:46;;;;;;;1.77;0.83;;;15.40;99.90;;;;;;4951960;28;20616;-90
2021/10/01 11:49:17;;;;;;;0.90;0.90;;;15.20;99.90;;;;;;4952150;28;20185;-88
2021/10/01 11:52:05;;;;;;;1.30;1.00;;;15.10;99.90;;;;;;4988827;28;21315;-89
2021/10/01 11:54:32;;;;;;;3.33;1.13;;;15.00;99.90;;;;;;4976656;28;20243;-89
2021/10/01 11:57:06;;;;;;;0.83;0.67;;;15.00;99.90;;;;;;4957783;28;20254;-91
2021/10/01 11:59:50;;;;;;;1.43;1.33;;;14.90;99.90;;;;;;4983013;28;20234;-89
2021/10/01 12:02:41;;;;;;;1.17;0.90;;;14.70;99.90;;;;;;4967804;28;20973;-89
2021/10/01 12:05:28;;;;;;;1.50;1.00;;;14.60;99.90;;;;;;4970160;28;20276;-89
2021/10/01 12:07:57;;;;;;;1.90;1.23;;;14.40;99.90;;;;;;4995114;28;20216;-88
2021/10/01 12:10:25;;;;;;;1.40;1.13;;;14.30;99.90;;;;;;4980592;28;20246;-90
2021/10/01 12:13:24;;;;;;;2.20;1.37;;;14.20;99.90;;;;;;4981304;28;20259;-88
2021/10/01 12:15:54;;;;;;;1.90;1.33;;;14.20;99.90;;;;;;4958757;28;20238;-89
2021/10/01 12:18:33;;;;;;;1.30;0.90;;;14.10;99.90;;;;;;4967463;28;20864;-90
2021/10/01 12:21:13;;;;;;;1.53;1.43;;;14.10;99.90;;;;;;4966858;28;20588;-89
2021/10/01 12:23:51;;;;;;;1.53;1.33;;;14.20;99.90;;;;;;4943092;28;20226;-88
2021/10/01 12:26:18;;;;;;;6.33;1.43;;;14.20;99.90;;;;;;4980936;28;20239;-90
2021/10/01 12:29:06;;;;;;;1.57;1.10;;;14.20;99.90;;;;;;4985530;28;20216;-90
2021/10/01 12:31:39;;;;;;;2.37;1.40;;;14.20;99.90;;;;;;5003364;28;20681;-88
2021/10/01 12:34:07;;;;;;;2.53;1.00;;;14.20;99.90;;;;;;4971059;28;20181;-89
2021/10/01 12:36:35;;;;;;;1.53;1.30;;;14.10;99.90;;;;;;4985440;28;20220;-90
2021/10/01 12:39:01;;;;;;;3.77;1.40;;;14.10;99.90;;;;;;4970156;28;20220;-88
2021/10/01 12:41:29;;;;;;;2.67;1.70;;;14.10;99.90;;;;;;4969342;28;20220;-89
2021/10/01 12:43:58;;;;;;;1.93;1.50;;;14.10;99.90;;;;;;4969637;28;20231;-90
2021/10/01 12:46:36;;;;;;;3.50;1.43;;;14.00;99.90;;;;;;5001984;28;20176;-90
2021/10/01 12:49:24;;;;;;;2.00;1.00;;;14.00;99.90;;;;;;5002021;28;20662;-88
2021/10/01 12:52:19;;;;;;;1.57;1.43;;;14.00;99.90;;;;;;4969709;28;20279;-88
2021/10/01 12:54:46;;;;;;;1.37;1.27;;;14.00;99.90;;;;;;4969446;28;20220;-90
2021/10/01 12:57:28;;;;;;;2.80;1.60;;;14.10;99.90;;;;;;5002571;28;20212;-90
2021/10/01 13:00:02;;;;;;;1.70;1.07;;;14.10;99.90;;;;;;5002714;28;20442;-88
2021/10/01 13:02:34;;;;;;;1.53;1.40;;;14.10;99.90;;;;;;5002447;28;20248;-89
2021/10/01 13:05:15;;;;;;;1.30;1.20;;;14.10;99.90;;;;;;4985675;28;20339;-90
2021/10/01 13:07:46;;;;;;;2.40;1.40;;;14.00;99.90;;;;;;4970138;28;20838;-89
2021/10/01 13:10:15;;;;;;;0.80;0.80;;;14.10;99.90;;;;;;4985926;28;20192;-89
2021/10/01 13:12:57;;;;;;;1.50;1.40;;;14.00;99.90;;;;;;5002493;28;21111;-89
2021/10/01 13:15:42;;;;;;;2.90;1.47;;;14.00;99.90;;;;;;4970869;28;20220;-90
2021/10/01 13:18:13;;;;;;;1.10;1.00;;;14.00;99.90;;;;;;5001758;28;20224;-91
2021/10/01 13:20:49;;;;;;;1.10;1.00;;;14.00;99.90;;;;;;5001211;28;20232;-90
2021/10/01 13:23:23;;;;;;;1.57;1.27;;;14.00;99.90;;;;;;4970064;28;20208;-91
2021/10/01 13:25:53;;;;;;;3.97;1.57;;;14.00;99.90;;;;;;5002059;28;20598;-90
2021/10/01 13:28:21;;;;;;;8.63;2.20;;;14.10;99.90;;;;;;4984693;28;20712;-90
2021/10/01 13:30:48;;;;;;;1.83;1.40;;;14.20;99.90;;;;;;4969455;28;20255;-90
2021/10/01 13:33:15;;;;;;;2.73;1.97;;;14.20;99.90;;;;;;4968964;28;20200;-90
2021/10/01 13:35:41;;;;;;;1.43;1.23;;;14.20;99.90;;;;;;4968998;28;20217;-90
2021/10/01 13:38:08;;;;;;;2.23;1.70;;;14.30;99.90;;;;;;4968986;28;20227;-91
2021/10/01 13:40:35;;;;;;;4.93;1.63;;;14.20;99.90;;;;;;4969918;28;20252;-92
2021/10/01 13:43:01;;;;;;;1.57;1.20;;;14.20;99.90;;;;;;4985872;28;20192;-91
2021/10/01 13:45:27;;;;;;;3.53;1.50;;;14.10;99.90;;;;;;4968309;28;20303;-91
2021/10/01 13:47:52;;;;;;;2.67;1.60;;;14.20;99.90;;;;;;4968612;28;20643;-90
2021/10/01 13:50:18;;;;;;;2.87;1.53;;;14.20;99.90;;;;;;4984934;28;20219;-90
2021/10/01 13:52:45;;;;;;;4.63;2.30;;;14.30;99.90;;;;;;4968065;28;20604;-91
2021/10/01 13:55:13;;;;;;;2.47;1.43;;;14.20;99.90;;;;;;4984218;28;20553;-90
2021/10/01 13:57:39;;;;;;;2.20;1.50;;;14.20;99.90;;;;;;5001275;28;20216;-90
2021/10/01 14:00:08;;;;;;;5.53;1.90;;;14.10;99.90;;;;;;5001185;28;20315;-90
2021/10/01 14:02:36;;;;;;;2.93;1.33;;;14.10;99.90;;;;;;4968568;28;20236;-91
2021/10/01 14:05:03;;;;;;;1.23;1.13;;;14.10;99.90;;;;;;5000874;28;21475;-91
2021/10/01 14:07:29;;;;;;;1.60;1.50;;;14.20;99.90;;;;;;4985177;28;20228;-90
2021/10/01 14:09:59;;;;;;;1.73;1.50;;;14.20;99.90;;;;;;4968327;28;20568;-90
2021/10/01 14:12:26;;;;;;;1.40;1.30;;;14.20;99.90;;;;;;4968003;28;20223;-90
2021/10/01 14:14:52;;;;;;;1.83;1.33;;;14.20;99.90;;;;;;4968233;28;20221;-90
2021/10/01 14:17:18;;;;;;;1.70;1.47;;;14.10;99.90;;;;;;4967787;28;20723;-90
2021/10/01 14:19:44;;;;;;;1.97;1.80;;;14.20;99.90;;;;;;4983675;28;20224;-90
2021/10/01 14:22:09;;;;;;;4.80;1.53;;;14.20;99.90;;;;;;4968175;28;20201;-90
2021/10/01 14:24:37;;;;;;;4.03;1.23;;;14.20;99.90;;;;;;4967913;28;20232;-90
2021/10/01 14:27:05;;;;;;;2.90;1.90;;;14.20;99.90;;;;;;4984076;28;20701;-91
2021/10/01 14:29:31;;;;;;;4.27;1.97;;;14.30;99.90;;;;;;4968281;28;20697;-90
2021/10/01 14:31:57;;;;;;;5.10;1.90;;;14.30;99.90;;;;;;4969049;28;20275;-90
2021/10/01 14:34:22;;;;;;;4.40;1.60;;;14.30;99.90;;;;;;4967683;28;20197;-91
2021/10/01 14:36:49;;;;;;;2.17;1.67;;;14.30;99.90;;;;;;4968600;28;20204;-90
2021/10/01 14:39:15;;;;;;;5.10;2.13;;;14.30;99.90;;;;;;4983303;28;20303;-92
2021/10/01 14:41:41;;;;;;;2.50;1.50;;;14.40;99.90;;;;;;4968127;28;20291;-91
2021/10/01 14:44:06;;;;;;;14.73;2.63;;;14.30;99.90;;;;;;4984389;28;20217;-91
2021/10/01 14:46:32;;;;;;;3.70;2.33;;;14.30;99.90;;;;;;4967553;28;20331;-90
2021/10/01 14:48:58;;;;;;;9.23;2.03;;;14.30;99.90;;;;;;4968259;28;20204;-90